createdAt,value
2018-07-16T00:03:28.609Z,99558.70
2018-07-16T00:08:12.113Z,99561.03
2018-07-16T00:12:59.598Z,99565.14
2018-07-16T00:17:43.214Z,99561.52
2018-07-16T00:22:26.862Z,99561.93
2018-07-16T00:27:10.560Z,99583.59
2018-07-16T00:31:54.123Z,99579.80
2018-07-16T00:36:38.908Z,99600.52
2018-07-16T00:41:22.557Z,99607.23
2018-07-16T00:46:09.704Z,99607.02
2018-07-16T00:50:53.247Z,99614.39
2018-07-16T00:55:39.979Z,99619.48
2018-07-16T01:00:23.569Z,99608.09
2018-07-16T01:05:10.710Z,99612.87
2018-07-16T01:09:54.157Z,99622.47
2018-07-16T01:14:41.212Z,99615.30
2018-07-16T01:19:24.823Z,99619.91
2018-07-16T01:24:09.458Z,99606.38
2018-07-16T01:28:53.168Z,99597.20
2018-07-16T01:33:36.782Z,99586.76
2018-07-16T01:38:20.318Z,99588.30
2018-07-16T01:43:07.017Z,99582.44
2018-07-16T01:47:50.619Z,99583.17
2018-07-16T01:52:38.501Z,99584.14
2018-07-16T01:57:21.979Z,99585.60
2018-07-16T02:02:05.555Z,99592.10
2018-07-16T02:06:54.140Z,99593.14
2018-07-16T02:11:37.631Z,99600.05
2018-07-16T02:16:22.225Z,99597.33
2018-07-16T02:21:05.629Z,99602.34
2018-07-16T02:25:52.595Z,99596.83
2018-07-16T02:30:36.305Z,99602.45
2018-07-16T02:35:20.988Z,99609.16
2018-07-16T02:40:04.415Z,99620.68
2018-07-16T02:44:47.920Z,99621.38
2018-07-16T02:49:31.559Z,99616.88
2018-07-16T02:54:15.303Z,99614.64
2018-07-16T02:58:58.935Z,99613.70
2018-07-16T03:03:45.877Z,99614.40
2018-07-16T03:08:29.502Z,99615.39
2018-07-16T03:13:13.229Z,99622.99
2018-07-16T03:17:56.599Z,99620.17
2018-07-16T03:22:43.602Z,99618.23
2018-07-16T03:27:27.231Z,99611.03
2018-07-16T03:32:10.792Z,99618.23
2018-07-16T03:36:54.302Z,99609.46
2018-07-16T03:41:37.997Z,99615.66
2018-07-16T03:46:22.929Z,99613.66
2018-07-16T03:55:51.930Z,99619.37
2018-07-16T04:00:35.424Z,99614.46
2018-07-16T04:05:24.049Z,99620.44
2018-07-16T04:10:07.629Z,99616.88
2018-07-16T04:14:52.211Z,99620.18
2018-07-16T04:19:35.773Z,99615.00
2018-07-16T04:24:22.286Z,99622.90
2018-07-16T04:29:06.421Z,99623.28
2018-07-16T04:33:53.358Z,99612.73
2018-07-16T04:38:36.945Z,99625.31
2018-07-16T04:43:23.717Z,99625.31
2018-07-16T04:48:07.204Z,99614.03
2018-07-16T04:52:51.764Z,99618.53
2018-07-16T04:57:35.219Z,99617.20
2018-07-16T05:02:19.077Z,99622.00
2018-07-16T05:07:02.829Z,99618.53
2018-07-16T05:11:46.459Z,99613.73
2018-07-16T05:16:33.054Z,99624.02
2018-07-16T05:21:16.696Z,99618.62
2018-07-16T05:26:03.854Z,99626.27
2018-07-16T05:30:47.379Z,99616.38
2018-07-16T05:35:34.458Z,99614.29
2018-07-16T05:40:18.066Z,99609.80
2018-07-16T05:45:01.539Z,99607.52
2018-07-16T05:49:45.085Z,99609.81
2018-07-16T05:54:28.705Z,99602.31
2018-07-16T05:59:12.335Z,99604.87
2018-07-16T06:03:57.108Z,99599.52
2018-07-16T06:08:40.620Z,99603.38
2018-07-16T06:13:24.236Z,99605.77
2018-07-16T06:18:07.760Z,99599.75
2018-07-16T06:22:51.452Z,99597.31
2018-07-16T06:27:34.883Z,99601.67
2018-07-16T06:32:19.579Z,99603.55
2018-07-16T06:37:03.041Z,99603.92
2018-07-16T06:41:50.568Z,99606.92
2018-07-16T06:46:34.097Z,99607.02
2018-07-16T06:51:17.682Z,99610.84
2018-07-16T06:56:05.489Z,99610.75
2018-07-16T07:00:49.089Z,99609.66
2018-07-16T07:05:36.134Z,99615.11
2018-07-16T07:10:19.809Z,99609.88
2018-07-16T07:15:03.388Z,99603.84
2018-07-16T07:19:46.905Z,99612.86
2018-07-16T07:24:33.830Z,99608.78
2018-07-16T07:29:17.295Z,99614.80
2018-07-16T07:34:04.198Z,99618.83
2018-07-16T07:38:47.757Z,99625.02
2018-07-16T07:43:35.345Z,99624.17
2018-07-16T07:48:18.944Z,99633.19
2018-07-16T07:53:05.663Z,99622.00
2018-07-16T07:57:48.982Z,99613.37
2018-07-16T08:02:33.509Z,99627.22
2018-07-16T08:07:17.128Z,99617.98
2018-07-16T08:12:04.393Z,99623.89
2018-07-16T08:16:47.865Z,99623.31
2018-07-16T08:21:32.334Z,99632.27
2018-07-16T08:26:15.922Z,99634.14
2018-07-16T08:30:59.501Z,99634.87
2018-07-16T08:35:46.299Z,99621.58
2018-07-16T08:40:29.804Z,99625.84
2018-07-16T08:45:17.112Z,99623.91
2018-07-16T08:50:00.663Z,99622.08
2018-07-16T08:54:45.180Z,99625.19
2018-07-16T08:59:28.659Z,99616.84
2018-07-16T09:04:12.363Z,99612.41
2018-07-16T09:08:55.787Z,99605.81
2018-07-16T09:13:39.548Z,99605.13
2018-07-16T09:18:23.053Z,99605.24
2018-07-16T09:23:09.759Z,99614.10
2018-07-16T09:27:53.239Z,99608.38
2018-07-16T09:32:36.692Z,99605.12
2018-07-16T09:37:20.195Z,99615.09
2018-07-16T09:42:08.052Z,99616.95
2018-07-16T09:46:51.570Z,99625.22
2018-07-16T09:51:36.109Z,99629.34
2018-07-16T09:56:19.626Z,99609.22
2018-07-16T10:01:08.307Z,99607.25
2018-07-16T10:05:51.881Z,99600.61
2018-07-16T10:10:35.406Z,99609.30
2018-07-16T10:15:20.025Z,99610.08
2018-07-16T10:20:03.420Z,99611.94
2018-07-16T10:24:48.092Z,99617.21
2018-07-16T10:29:31.702Z,99610.31
2018-07-16T10:34:18.990Z,99618.41
2018-07-16T10:39:02.494Z,99607.95
2018-07-16T10:43:47.098Z,99600.54
2018-07-16T10:48:30.420Z,99601.72
2018-07-16T10:53:14.122Z,99604.25
2018-07-16T10:57:57.752Z,99599.70
2018-07-16T11:02:41.456Z,99597.69
2018-07-16T11:07:24.827Z,99589.73
2018-07-16T11:12:09.498Z,99588.53
2018-07-16T11:16:53.021Z,99579.64
2018-07-16T11:21:38.680Z,99573.72
2018-07-16T11:26:22.302Z,99578.59
2018-07-16T11:31:09.261Z,99573.04
2018-07-16T11:35:52.838Z,99581.31
2018-07-16T11:40:36.286Z,99574.57
2018-07-16T11:45:23.421Z,99575.84
2018-07-16T11:50:06.784Z,99577.51
2018-07-16T11:54:53.841Z,99582.42
2018-07-16T11:59:37.239Z,99578.93
2018-07-16T12:04:24.678Z,99574.75
2018-07-16T12:09:08.175Z,99564.06
2018-07-16T12:13:52.484Z,99572.09
2018-07-16T12:18:36.648Z,99570.02
2018-07-16T12:23:21.099Z,99561.59
2018-07-16T12:28:04.722Z,99548.11
2018-07-16T12:32:48.403Z,99560.81
2018-07-16T12:37:31.906Z,99563.11
2018-07-16T12:42:16.455Z,99563.64
2018-07-16T12:47:00.032Z,99551.11
2018-07-16T12:51:46.876Z,99544.28
2018-07-16T12:56:30.396Z,99549.49
2018-07-16T13:01:17.149Z,99537.70
2018-07-16T13:06:00.600Z,99545.14
2018-07-16T13:10:47.864Z,99527.73
2018-07-16T13:15:31.298Z,99534.33
2018-07-16T13:20:14.823Z,99532.63
2018-07-16T13:25:02.122Z,99530.78
2018-07-16T13:29:45.617Z,99526.32
2018-07-16T13:34:32.150Z,99527.27
2018-07-16T13:39:15.677Z,99534.34
2018-07-16T13:43:59.334Z,99527.92
2018-07-16T13:48:42.931Z,99525.84
2018-07-16T13:53:27.381Z,99513.73
2018-07-16T13:58:10.944Z,99528.90
2018-07-16T14:02:54.411Z,99524.64
2018-07-16T14:07:37.862Z,99523.92
2018-07-16T14:12:21.612Z,99520.91
2018-07-16T14:17:05.075Z,99522.25
2018-07-16T14:21:54.258Z,99519.06
2018-07-16T14:26:37.849Z,99512.01
2018-07-16T14:31:22.543Z,99508.61
2018-07-16T14:36:06.052Z,99513.27
2018-07-16T14:40:50.876Z,99503.16
2018-07-16T14:45:34.308Z,99506.97
2018-07-16T14:50:17.897Z,99504.92
2018-07-16T14:55:01.570Z,99503.67
2018-07-16T14:59:45.074Z,99498.45
2018-07-16T15:04:29.646Z,99501.28
2018-07-16T15:09:13.278Z,99498.86
2018-07-16T15:13:59.833Z,99499.36
2018-07-16T15:18:43.336Z,99499.61
2018-07-16T15:23:28.063Z,99495.18
2018-07-16T15:28:11.669Z,99492.63
2018-07-16T15:32:55.418Z,99495.40
2018-07-16T15:37:38.780Z,99490.55
2018-07-16T15:42:22.508Z,99498.73
2018-07-16T15:47:05.996Z,99494.70
2018-07-16T15:51:53.537Z,99493.23
2018-07-16T15:56:37.161Z,99496.94
2018-07-16T16:01:21.950Z,99499.33
2018-07-16T16:06:05.739Z,99506.41
2018-07-16T16:10:49.170Z,99502.28
2018-07-16T16:15:36.142Z,99500.47
2018-07-16T16:20:19.751Z,99509.11
2018-07-16T16:25:06.864Z,99510.15
2018-07-16T16:29:50.238Z,99508.82
2018-07-16T16:34:36.892Z,99511.84
2018-07-16T16:39:20.359Z,99512.75
2018-07-16T16:44:07.208Z,99521.00
2018-07-16T16:48:51.625Z,99527.97
2018-07-16T16:53:35.329Z,99528.02
2018-07-16T16:58:18.814Z,99535.95
2018-07-16T17:03:02.463Z,99529.71
2018-07-16T17:07:47.136Z,99527.77
2018-07-16T17:12:30.815Z,99526.10
2018-07-16T17:17:18.237Z,99532.38
2018-07-16T17:22:01.707Z,99527.34
2018-07-16T17:26:52.716Z,99524.88
2018-07-16T17:31:36.887Z,99529.17
2018-07-16T17:36:25.878Z,99526.84
2018-07-16T17:41:09.437Z,99527.16
2018-07-16T17:45:56.871Z,99531.29
2018-07-16T17:50:40.327Z,99532.02
2018-07-16T17:55:27.887Z,99539.45
2018-07-16T18:00:11.479Z,99534.30
2018-07-16T18:04:54.934Z,99528.94
2018-07-16T18:09:38.480Z,99531.81
2018-07-16T18:14:25.298Z,99542.31
2018-07-16T18:19:08.862Z,99558.23
2018-07-16T18:23:53.286Z,99549.09
2018-07-16T18:28:36.856Z,99557.53
2018-07-16T18:33:20.459Z,99554.38
2018-07-16T18:38:03.957Z,99553.69
2018-07-16T18:42:47.468Z,99560.48
2018-07-16T18:47:31.127Z,99565.84
2018-07-16T18:52:14.701Z,99575.36
2018-07-16T18:56:59.163Z,99577.91
2018-07-16T19:01:42.831Z,99572.98
2018-07-16T19:06:26.724Z,99577.44
2018-07-16T19:11:10.115Z,99581.32
2018-07-16T19:15:54.006Z,99571.86
2018-07-16T19:20:37.585Z,99577.59
2018-07-16T19:25:22.090Z,99571.13
2018-07-16T19:30:06.264Z,99570.18
2018-07-16T19:34:51.163Z,99576.25
2018-07-16T19:39:35.524Z,99572.34
2018-07-16T19:44:19.340Z,99567.91
2018-07-16T19:49:02.921Z,99558.27
2018-07-16T19:53:46.590Z,99562.43
2018-07-16T19:58:30.207Z,99557.46
2018-07-16T20:03:14.025Z,99557.42
2018-07-16T20:07:57.474Z,99558.50
2018-07-16T20:12:41.022Z,99561.58
2018-07-16T20:17:27.854Z,99562.40
2018-07-16T20:22:11.371Z,99564.92
2018-07-16T20:26:58.364Z,99573.08
2018-07-16T20:31:41.925Z,99563.80
2018-07-16T20:36:26.733Z,99558.37
2018-07-16T20:41:10.378Z,99565.14
2018-07-16T20:45:56.939Z,99556.91
2018-07-16T20:50:40.643Z,99553.84
2018-07-16T20:55:24.303Z,99556.53
2018-07-16T21:00:09.023Z,99560.45
2018-07-16T21:04:53.581Z,99541.58
2018-07-16T21:09:37.130Z,99541.92
2018-07-16T21:14:21.711Z,99541.41
2018-07-16T21:19:05.270Z,99531.80
2018-07-16T21:23:49.884Z,99532.28
2018-07-16T21:28:33.424Z,99520.83
2018-07-16T21:33:20.063Z,99514.25
2018-07-16T21:38:03.613Z,99496.88
2018-07-16T21:42:47.158Z,99499.78
2018-07-16T21:47:30.738Z,99507.50
2018-07-16T21:52:14.502Z,99513.76
2018-07-16T21:57:01.255Z,99518.63
2018-07-16T22:01:44.769Z,99516.48
2018-07-16T22:06:32.222Z,99518.22
2018-07-16T22:11:15.786Z,99507.11
2018-07-16T22:16:02.909Z,99508.94
2018-07-16T22:20:46.397Z,99503.66
2018-07-16T22:25:30.018Z,99496.49
2018-07-16T22:30:13.591Z,99488.74
2018-07-16T22:35:03.744Z,99487.29
2018-07-16T22:39:47.253Z,99487.48
2018-07-16T22:44:30.851Z,99488.80
2018-07-16T22:49:14.460Z,99486.81
2018-07-16T22:53:59.198Z,99485.72
2018-07-16T22:58:42.771Z,99478.28
2018-07-16T23:03:26.378Z,99477.14
2018-07-16T23:08:09.898Z,99471.81
2018-07-16T23:12:54.468Z,99470.92
2018-07-16T23:17:37.908Z,99472.95
2018-07-16T23:22:21.531Z,99476.72
2018-07-16T23:27:08.336Z,99471.17
2018-07-16T23:31:51.964Z,99469.90
2018-07-16T23:36:36.560Z,99466.91
2018-07-16T23:41:19.901Z,99454.59
2018-07-16T23:46:07.234Z,99459.55
2018-07-16T23:50:50.748Z,99458.05
2018-07-16T23:55:37.434Z,99457.37
